<?xml version="1.0" encoding="UTF-8" standalone="no" ?>
<gpx xmlns="http://www.topografix.com/GPX/1/1" xmlns:xsi="http://www.w3.org/2001/XMLSchema-instance" xsi:schemaLocation="http://www.topografix.com/GPX/1/1 http://www.topografix.com/GPX/1/1/gpx.xsd" version="1.1" creator="VisuGPX - https://www.visugpx.com">
  <metadata>
    <name>Toutencourt </name>
  </metadata>
  <trk>
    <name><![CDATA[Toutencourt _1]]></name>
    <trkseg>
      <trkpt lat="50.03532" lon="2.45984">
        <ele>73.2</ele>
        <time>2023-05-24T12:03:28Z</time>
      </trkpt>
      <trkpt lat="50.03532" lon="2.45984">
        <ele>73.2</ele>
        <time>2023-05-24T12:03:29Z</time>
      </trkpt>
      <trkpt lat="50.03532" lon="2.45984">
        <ele>73.2</ele>
        <time>2023-05-24T12:03:30Z</time>
      </trkpt>
      <trkpt lat="50.03532" lon="2.45984">
        <ele>73.2</ele>
        <time>2023-05-24T12:03:31Z</time>
      </trkpt>
      <trkpt lat="50.03532" lon="2.45984">
        <ele>73.2</ele>
        <time>2023-05-24T12:03:32Z</time>
      </trkpt>
      <trkpt lat="50.03532" lon="2.45984">
        <ele>73.2</ele>
        <time>2023-05-24T12:03:33Z</time>
      </trkpt>
      <trkpt lat="50.03532" lon="2.45984">
        <ele>73.2</ele>
        <time>2023-05-24T12:03:34Z</time>
      </trkpt>
      <trkpt lat="50.03532" lon="2.45984">
        <ele>73.2</ele>
        <time>2023-05-24T12:03:35Z</time>
      </trkpt>
      <trkpt lat="50.03532" lon="2.45984">
        <ele>73.2</ele>
        <time>2023-05-24T12:03:36Z</time>
      </trkpt>
      <trkpt lat="50.03532" lon="2.45984">
        <ele>73.2</ele>
        <time>2023-05-24T12:03:37Z</time>
      </trkpt>
      <trkpt lat="50.03532" lon="2.45984">
        <ele>73.2</ele>
        <time>2023-05-24T12:03:38Z</time>
      </trkpt>
      <trkpt lat="50.03529" lon="2.45983">
        <ele>73.3</ele>
        <time>2023-05-24T12:03:56Z</time>
      </trkpt>
      <trkpt lat="50.03529" lon="2.45983">
        <ele>73.3</ele>
        <time>2023-05-24T12:03:57Z</time>
      </trkpt>
      <trkpt lat="50.03528" lon="2.45982">
        <ele>73.3</ele>
        <time>2023-05-24T12:03:58Z</time>
      </trkpt>
      <trkpt lat="50.03527" lon="2.45982">
        <ele>73.4</ele>
        <time>2023-05-24T12:03:59Z</time>
      </trkpt>
      <trkpt lat="50.03526" lon="2.45982">
        <ele>73.4</ele>
        <time>2023-05-24T12:04:00Z</time>
      </trkpt>
      <trkpt lat="50.03526" lon="2.45982">
        <ele>73.4</ele>
        <time>2023-05-24T12:04:01Z</time>
      </trkpt>
      <trkpt lat="50.03525" lon="2.45981">
        <ele>73.4</ele>
        <time>2023-05-24T12:04:02Z</time>
      </trkpt>
      <trkpt lat="50.03524" lon="2.45981">
        <ele>73.4</ele>
        <time>2023-05-24T12:04:03Z</time>
      </trkpt>
      <trkpt lat="50.03524" lon="2.45981">
        <ele>73.4</ele>
        <time>2023-05-24T12:04:04Z</time>
      </trkpt>
      <trkpt lat="50.03523" lon="2.4598">
        <ele>73.5</ele>
        <time>2023-05-24T12:04:05Z</time>
      </trkpt>
      <trkpt lat="50.03523" lon="2.4598">
        <ele>73.5</ele>
        <time>2023-05-24T12:04:06Z</time>
      </trkpt>
      <trkpt lat="50.03522" lon="2.4598">
        <ele>73.5</ele>
        <time>2023-05-24T12:04:07Z</time>
      </trkpt>
      <trkpt lat="50.03521" lon="2.45979">
        <ele>73.5</ele>
        <time>2023-05-24T12:04:08Z</time>
      </trkpt>
      <trkpt lat="50.03521" lon="2.45978">
        <ele>73.5</ele>
        <time>2023-05-24T12:04:09Z</time>
      </trkpt>
      <trkpt lat="50.0352" lon="2.45977">
        <ele>73.6</ele>
        <time>2023-05-24T12:04:10Z</time>
      </trkpt>
      <trkpt lat="50.03519" lon="2.45977">
        <ele>73.6</ele>
        <time>2023-05-24T12:04:11Z</time>
      </trkpt>
      <trkpt lat="50.03456" lon="2.45903">
        <ele>77.8</ele>
        <time>2023-05-24T12:08:44Z</time>
      </trkpt>
      <trkpt lat="50.03456" lon="2.45903">
        <ele>77.8</ele>
        <time>2023-05-24T12:08:44Z</time>
      </trkpt>
      <trkpt lat="50.03311" lon="2.45858">
        <ele>90.8</ele>
        <time>2023-05-24T12:08:45Z</time>
      </trkpt>
      <trkpt lat="50.03311" lon="2.45858">
        <ele>90.8</ele>
        <time>2023-05-24T12:08:46Z</time>
      </trkpt>
      <trkpt lat="50.03311" lon="2.45859">
        <ele>90.8</ele>
        <time>2023-05-24T12:08:48Z</time>
      </trkpt>
      <trkpt lat="50.0331" lon="2.45859">
        <ele>90.8</ele>
        <time>2023-05-24T12:08:49Z</time>
      </trkpt>
      <trkpt lat="50.03311" lon="2.45858">
        <ele>90.8</ele>
        <time>2023-05-24T12:08:51Z</time>
      </trkpt>
      <trkpt lat="50.03311" lon="2.45858">
        <ele>90.8</ele>
        <time>2023-05-24T12:08:52Z</time>
      </trkpt>
      <trkpt lat="50.03311" lon="2.45858">
        <ele>90.8</ele>
        <time>2023-05-24T12:08:54Z</time>
      </trkpt>
      <trkpt lat="50.03311" lon="2.45858">
        <ele>90.8</ele>
        <time>2023-05-24T12:08:55Z</time>
      </trkpt>
      <trkpt lat="50.03311" lon="2.45858">
        <ele>90.8</ele>
        <time>2023-05-24T12:08:57Z</time>
      </trkpt>
      <trkpt lat="50.03311" lon="2.45858">
        <ele>90.8</ele>
        <time>2023-05-24T12:08:58Z</time>
      </trkpt>
      <trkpt lat="50.03311" lon="2.45858">
        <ele>90.8</ele>
        <time>2023-05-24T12:08:59Z</time>
      </trkpt>
      <trkpt lat="50.03315" lon="2.45851">
        <ele>90.8</ele>
        <time>2023-05-24T12:09:07Z</time>
      </trkpt>
      <trkpt lat="50.03313" lon="2.45857">
        <ele>90.8</ele>
        <time>2023-05-24T12:09:09Z</time>
      </trkpt>
      <trkpt lat="50.03039" lon="2.46194">
        <ele>91.3</ele>
        <time>2023-05-24T12:14:34Z</time>
      </trkpt>
      <trkpt lat="50.03003" lon="2.46209">
        <ele>89.7</ele>
        <time>2023-05-24T12:20:10Z</time>
      </trkpt>
      <trkpt lat="50.02672" lon="2.46306">
        <ele>86.4</ele>
        <time>2023-05-24T12:20:11Z</time>
      </trkpt>
      <trkpt lat="50.0267" lon="2.46307">
        <ele>86.4</ele>
        <time>2023-05-24T12:20:12Z</time>
      </trkpt>
      <trkpt lat="50.02668" lon="2.46308">
        <ele>86.4</ele>
        <time>2023-05-24T12:20:14Z</time>
      </trkpt>
      <trkpt lat="50.02667" lon="2.46309">
        <ele>86.4</ele>
        <time>2023-05-24T12:20:15Z</time>
      </trkpt>
      <trkpt lat="50.02665" lon="2.4631">
        <ele>86.4</ele>
        <time>2023-05-24T12:20:16Z</time>
      </trkpt>
      <trkpt lat="50.02461" lon="2.46432">
        <ele>85.6</ele>
        <time>2023-05-24T12:26:41Z</time>
      </trkpt>
      <trkpt lat="50.02461" lon="2.46432">
        <ele>85.6</ele>
        <time>2023-05-24T12:26:41Z</time>
      </trkpt>
      <trkpt lat="50.02427" lon="2.46463">
        <ele>84.6</ele>
        <time>2023-05-24T12:26:42Z</time>
      </trkpt>
      <trkpt lat="50.02426" lon="2.46464">
        <ele>84.6</ele>
        <time>2023-05-24T12:26:43Z</time>
      </trkpt>
      <trkpt lat="50.02425" lon="2.46464">
        <ele>84.5</ele>
        <time>2023-05-24T12:26:44Z</time>
      </trkpt>
      <trkpt lat="50.02424" lon="2.46465">
        <ele>84.5</ele>
        <time>2023-05-24T12:26:45Z</time>
      </trkpt>
      <trkpt lat="50.02423" lon="2.46466">
        <ele>84.4</ele>
        <time>2023-05-24T12:26:46Z</time>
      </trkpt>
      <trkpt lat="50.02309" lon="2.46591">
        <ele>76.8</ele>
        <time>2023-05-24T12:31:56Z</time>
      </trkpt>
      <trkpt lat="50.02073" lon="2.46766">
        <ele>65.1</ele>
        <time>2023-05-24T12:38:19Z</time>
      </trkpt>
      <trkpt lat="50.01875" lon="2.46884">
        <ele>64.2</ele>
        <time>2023-05-24T12:38:20Z</time>
      </trkpt>
      <trkpt lat="50.01875" lon="2.46886">
        <ele>64.2</ele>
        <time>2023-05-24T12:38:21Z</time>
      </trkpt>
      <trkpt lat="50.01876" lon="2.46887">
        <ele>64.2</ele>
        <time>2023-05-24T12:38:22Z</time>
      </trkpt>
      <trkpt lat="50.01876" lon="2.46889">
        <ele>64.1</ele>
        <time>2023-05-24T12:38:23Z</time>
      </trkpt>
      <trkpt lat="50.01876" lon="2.46891">
        <ele>64.1</ele>
        <time>2023-05-24T12:38:24Z</time>
      </trkpt>
      <trkpt lat="50.01876" lon="2.46892">
        <ele>64.1</ele>
        <time>2023-05-24T12:38:25Z</time>
      </trkpt>
      <trkpt lat="50.02031" lon="2.47345">
        <ele>77.5</ele>
        <time>2023-05-24T12:44:00Z</time>
      </trkpt>
      <trkpt lat="50.02061" lon="2.47402">
        <ele>80.5</ele>
        <time>2023-05-24T12:49:58Z</time>
      </trkpt>
      <trkpt lat="50.0209" lon="2.47795">
        <ele>97.9</ele>
        <time>2023-05-24T12:49:59Z</time>
      </trkpt>
      <trkpt lat="50.0209" lon="2.47802">
        <ele>97.8</ele>
        <time>2023-05-24T12:50:00Z</time>
      </trkpt>
      <trkpt lat="50.0209" lon="2.47804">
        <ele>97.8</ele>
        <time>2023-05-24T12:50:01Z</time>
      </trkpt>
      <trkpt lat="50.0209" lon="2.47805">
        <ele>97.8</ele>
        <time>2023-05-24T12:50:02Z</time>
      </trkpt>
      <trkpt lat="50.0209" lon="2.47806">
        <ele>97.8</ele>
        <time>2023-05-24T12:50:03Z</time>
      </trkpt>
      <trkpt lat="50.0209" lon="2.47808">
        <ele>97.8</ele>
        <time>2023-05-24T12:50:04Z</time>
      </trkpt>
      <trkpt lat="50.02095" lon="2.4783">
        <ele>97.5</ele>
        <time>2023-05-24T12:50:39Z</time>
      </trkpt>
      <trkpt lat="50.02095" lon="2.47832">
        <ele>97.5</ele>
        <time>2023-05-24T12:50:40Z</time>
      </trkpt>
      <trkpt lat="50.02095" lon="2.47834">
        <ele>97.5</ele>
        <time>2023-05-24T12:50:41Z</time>
      </trkpt>
      <trkpt lat="50.02095" lon="2.47837">
        <ele>97.5</ele>
        <time>2023-05-24T12:50:43Z</time>
      </trkpt>
      <trkpt lat="50.02096" lon="2.47838">
        <ele>97.4</ele>
        <time>2023-05-24T12:50:44Z</time>
      </trkpt>
      <trkpt lat="50.02096" lon="2.47841">
        <ele>97.4</ele>
        <time>2023-05-24T12:50:45Z</time>
      </trkpt>
      <trkpt lat="50.02095" lon="2.47847">
        <ele>97.3</ele>
        <time>2023-05-24T12:50:47Z</time>
      </trkpt>
      <trkpt lat="50.02095" lon="2.4785">
        <ele>97.3</ele>
        <time>2023-05-24T12:50:49Z</time>
      </trkpt>
      <trkpt lat="50.02095" lon="2.47852">
        <ele>97.3</ele>
        <time>2023-05-24T12:50:50Z</time>
      </trkpt>
      <trkpt lat="50.02095" lon="2.47854">
        <ele>97.2</ele>
        <time>2023-05-24T12:50:51Z</time>
      </trkpt>
      <trkpt lat="50.02095" lon="2.47857">
        <ele>97.2</ele>
        <time>2023-05-24T12:50:52Z</time>
      </trkpt>
      <trkpt lat="50.02094" lon="2.47859">
        <ele>97.2</ele>
        <time>2023-05-24T12:50:53Z</time>
      </trkpt>
      <trkpt lat="50.02094" lon="2.47861">
        <ele>97.1</ele>
        <time>2023-05-24T12:50:54Z</time>
      </trkpt>
      <trkpt lat="50.02095" lon="2.47864">
        <ele>97.1</ele>
        <time>2023-05-24T12:50:55Z</time>
      </trkpt>
      <trkpt lat="50.02095" lon="2.47866">
        <ele>97.1</ele>
        <time>2023-05-24T12:50:57Z</time>
      </trkpt>
      <trkpt lat="50.02095" lon="2.47868">
        <ele>97.1</ele>
        <time>2023-05-24T12:50:58Z</time>
      </trkpt>
      <trkpt lat="50.02094" lon="2.47871">
        <ele>97</ele>
        <time>2023-05-24T12:51:00Z</time>
      </trkpt>
      <trkpt lat="50.02093" lon="2.47873">
        <ele>97</ele>
        <time>2023-05-24T12:51:02Z</time>
      </trkpt>
      <trkpt lat="50.02094" lon="2.47874">
        <ele>97</ele>
        <time>2023-05-24T12:51:03Z</time>
      </trkpt>
      <trkpt lat="50.02094" lon="2.47875">
        <ele>97</ele>
        <time>2023-05-24T12:51:04Z</time>
      </trkpt>
      <trkpt lat="50.02094" lon="2.47877">
        <ele>97</ele>
        <time>2023-05-24T12:51:05Z</time>
      </trkpt>
      <trkpt lat="50.02147" lon="2.47972">
        <ele>101.3</ele>
        <time>2023-05-24T12:51:06Z</time>
      </trkpt>
      <trkpt lat="50.02199" lon="2.48065">
        <ele>101.9</ele>
        <time>2023-05-24T12:56:50Z</time>
      </trkpt>
      <trkpt lat="50.02251" lon="2.48159">
        <ele>98.2</ele>
        <time>2023-05-24T12:56:56Z</time>
      </trkpt>
      <trkpt lat="50.02178" lon="2.48651">
        <ele>80.8</ele>
        <time>2023-05-24T13:02:41Z</time>
      </trkpt>
      <trkpt lat="50.02179" lon="2.48652">
        <ele>80.7</ele>
        <time>2023-05-24T13:02:42Z</time>
      </trkpt>
      <trkpt lat="50.02179" lon="2.48653">
        <ele>80.7</ele>
        <time>2023-05-24T13:02:43Z</time>
      </trkpt>
      <trkpt lat="50.0218" lon="2.48655">
        <ele>80.7</ele>
        <time>2023-05-24T13:02:44Z</time>
      </trkpt>
      <trkpt lat="50.0218" lon="2.48656">
        <ele>80.7</ele>
        <time>2023-05-24T13:02:45Z</time>
      </trkpt>
      <trkpt lat="50.02181" lon="2.48657">
        <ele>80.7</ele>
        <time>2023-05-24T13:02:47Z</time>
      </trkpt>
      <trkpt lat="50.02481" lon="2.48802">
        <ele>80.4</ele>
        <time>2023-05-24T13:08:21Z</time>
      </trkpt>
      <trkpt lat="50.02531" lon="2.48799">
        <ele>79</ele>
        <time>2023-05-24T13:16:07Z</time>
      </trkpt>
      <trkpt lat="50.02642" lon="2.48821">
        <ele>81.5</ele>
        <time>2023-05-24T13:16:08Z</time>
      </trkpt>
      <trkpt lat="50.02644" lon="2.48821">
        <ele>81.5</ele>
        <time>2023-05-24T13:16:09Z</time>
      </trkpt>
      <trkpt lat="50.02645" lon="2.48821">
        <ele>81.5</ele>
        <time>2023-05-24T13:16:10Z</time>
      </trkpt>
      <trkpt lat="50.02646" lon="2.48821">
        <ele>81.5</ele>
        <time>2023-05-24T13:16:11Z</time>
      </trkpt>
      <trkpt lat="50.02647" lon="2.48821">
        <ele>81.5</ele>
        <time>2023-05-24T13:16:13Z</time>
      </trkpt>
      <trkpt lat="50.02927" lon="2.48902">
        <ele>80</ele>
        <time>2023-05-24T13:21:46Z</time>
      </trkpt>
      <trkpt lat="50.03101" lon="2.48938">
        <ele>82.3</ele>
        <time>2023-05-24T13:27:33Z</time>
      </trkpt>
      <trkpt lat="50.03309" lon="2.49055">
        <ele>91.2</ele>
        <time>2023-05-24T13:27:34Z</time>
      </trkpt>
      <trkpt lat="50.03312" lon="2.49056">
        <ele>91.2</ele>
        <time>2023-05-24T13:27:36Z</time>
      </trkpt>
      <trkpt lat="50.03312" lon="2.49056">
        <ele>91.2</ele>
        <time>2023-05-24T13:27:37Z</time>
      </trkpt>
      <trkpt lat="50.03313" lon="2.49057">
        <ele>91.3</ele>
        <time>2023-05-24T13:27:38Z</time>
      </trkpt>
      <trkpt lat="50.03314" lon="2.49057">
        <ele>91.3</ele>
        <time>2023-05-24T13:27:39Z</time>
      </trkpt>
      <trkpt lat="50.03452" lon="2.49118">
        <ele>98</ele>
        <time>2023-05-24T13:33:59Z</time>
      </trkpt>
      <trkpt lat="50.03719" lon="2.48965">
        <ele>114.1</ele>
        <time>2023-05-24T13:41:34Z</time>
      </trkpt>
      <trkpt lat="50.0372" lon="2.48965">
        <ele>114.1</ele>
        <time>2023-05-24T13:41:35Z</time>
      </trkpt>
      <trkpt lat="50.03722" lon="2.48964">
        <ele>114.1</ele>
        <time>2023-05-24T13:47:06Z</time>
      </trkpt>
      <trkpt lat="50.03993" lon="2.49034">
        <ele>116.5</ele>
        <time>2023-05-24T13:47:07Z</time>
      </trkpt>
      <trkpt lat="50.04046" lon="2.49093">
        <ele>116.8</ele>
        <time>2023-05-24T13:47:08Z</time>
      </trkpt>
      <trkpt lat="50.04047" lon="2.49093">
        <ele>116.8</ele>
        <time>2023-05-24T13:47:09Z</time>
      </trkpt>
      <trkpt lat="50.04048" lon="2.49094">
        <ele>116.8</ele>
        <time>2023-05-24T13:47:10Z</time>
      </trkpt>
      <trkpt lat="50.04049" lon="2.49095">
        <ele>116.8</ele>
        <time>2023-05-24T13:47:11Z</time>
      </trkpt>
      <trkpt lat="50.0405" lon="2.49096">
        <ele>116.7</ele>
        <time>2023-05-24T13:47:12Z</time>
      </trkpt>
      <trkpt lat="50.04155" lon="2.49214">
        <ele>115.2</ele>
        <time>2023-05-24T13:52:50Z</time>
      </trkpt>
      <trkpt lat="50.04155" lon="2.49214">
        <ele>115.2</ele>
        <time>2023-05-24T13:52:50Z</time>
      </trkpt>
      <trkpt lat="50.04338" lon="2.49377">
        <ele>122.5</ele>
        <time>2023-05-24T13:52:51Z</time>
      </trkpt>
      <trkpt lat="50.04339" lon="2.49378">
        <ele>122.5</ele>
        <time>2023-05-24T13:52:52Z</time>
      </trkpt>
      <trkpt lat="50.0434" lon="2.49379">
        <ele>122.6</ele>
        <time>2023-05-24T13:52:53Z</time>
      </trkpt>
      <trkpt lat="50.0434" lon="2.4938">
        <ele>122.6</ele>
        <time>2023-05-24T13:52:54Z</time>
      </trkpt>
      <trkpt lat="50.04341" lon="2.49381">
        <ele>122.7</ele>
        <time>2023-05-24T13:52:55Z</time>
      </trkpt>
      <trkpt lat="50.04418" lon="2.49466">
        <ele>128.2</ele>
        <time>2023-05-24T13:59:36Z</time>
      </trkpt>
      <trkpt lat="50.04418" lon="2.49466">
        <ele>128.2</ele>
        <time>2023-05-24T13:59:36Z</time>
      </trkpt>
      <trkpt lat="50.0453" lon="2.49566">
        <ele>133.9</ele>
        <time>2023-05-24T13:59:37Z</time>
      </trkpt>
      <trkpt lat="50.0453" lon="2.49566">
        <ele>133.9</ele>
        <time>2023-05-24T13:59:38Z</time>
      </trkpt>
      <trkpt lat="50.0453" lon="2.49566">
        <ele>133.9</ele>
        <time>2023-05-24T13:59:39Z</time>
      </trkpt>
      <trkpt lat="50.0453" lon="2.49566">
        <ele>133.9</ele>
        <time>2023-05-24T13:59:40Z</time>
      </trkpt>
      <trkpt lat="50.0453" lon="2.49566">
        <ele>133.9</ele>
        <time>2023-05-24T13:59:41Z</time>
      </trkpt>
      <trkpt lat="50.0453" lon="2.49566">
        <ele>133.9</ele>
        <time>2023-05-24T13:59:42Z</time>
      </trkpt>
      <trkpt lat="50.04676" lon="2.49408">
        <ele>142.3</ele>
        <time>2023-05-24T14:05:59Z</time>
      </trkpt>
      <trkpt lat="50.04936" lon="2.49179">
        <ele>136.6</ele>
        <time>2023-05-24T14:12:09Z</time>
      </trkpt>
      <trkpt lat="50.05013" lon="2.49119">
        <ele>141.1</ele>
        <time>2023-05-24T14:12:10Z</time>
      </trkpt>
      <trkpt lat="50.05013" lon="2.49119">
        <ele>141.1</ele>
        <time>2023-05-24T14:12:11Z</time>
      </trkpt>
      <trkpt lat="50.05013" lon="2.49119">
        <ele>141.1</ele>
        <time>2023-05-24T14:12:12Z</time>
      </trkpt>
      <trkpt lat="50.05013" lon="2.49119">
        <ele>141.1</ele>
        <time>2023-05-24T14:12:13Z</time>
      </trkpt>
      <trkpt lat="50.05013" lon="2.49119">
        <ele>141.1</ele>
        <time>2023-05-24T14:12:14Z</time>
      </trkpt>
      <trkpt lat="50.05013" lon="2.49119">
        <ele>141.1</ele>
        <time>2023-05-24T14:12:15Z</time>
      </trkpt>
      <trkpt lat="50.04936" lon="2.48819">
        <ele>138</ele>
        <time>2023-05-24T14:18:36Z</time>
      </trkpt>
      <trkpt lat="50.04911" lon="2.48728">
        <ele>136.6</ele>
        <time>2023-05-24T14:18:41Z</time>
      </trkpt>
      <trkpt lat="50.04849" lon="2.48526">
        <ele>134.5</ele>
        <time>2023-05-24T14:24:11Z</time>
      </trkpt>
      <trkpt lat="50.04715" lon="2.48292">
        <ele>130.9</ele>
        <time>2023-05-24T14:24:12Z</time>
      </trkpt>
      <trkpt lat="50.04714" lon="2.48289">
        <ele>130.8</ele>
        <time>2023-05-24T14:24:14Z</time>
      </trkpt>
      <trkpt lat="50.04713" lon="2.48288">
        <ele>130.8</ele>
        <time>2023-05-24T14:24:15Z</time>
      </trkpt>
      <trkpt lat="50.04712" lon="2.48286">
        <ele>130.8</ele>
        <time>2023-05-24T14:24:17Z</time>
      </trkpt>
      <trkpt lat="50.04607" lon="2.48135">
        <ele>129.8</ele>
        <time>2023-05-24T14:29:45Z</time>
      </trkpt>
      <trkpt lat="50.04607" lon="2.48135">
        <ele>129.8</ele>
        <time>2023-05-24T14:29:45Z</time>
      </trkpt>
      <trkpt lat="50.04434" lon="2.47979">
        <ele>125.1</ele>
        <time>2023-05-24T14:29:46Z</time>
      </trkpt>
      <trkpt lat="50.0443" lon="2.47976">
        <ele>125</ele>
        <time>2023-05-24T14:29:47Z</time>
      </trkpt>
      <trkpt lat="50.04426" lon="2.47974">
        <ele>124.9</ele>
        <time>2023-05-24T14:29:48Z</time>
      </trkpt>
      <trkpt lat="50.04422" lon="2.47971">
        <ele>124.8</ele>
        <time>2023-05-24T14:29:49Z</time>
      </trkpt>
      <trkpt lat="50.04418" lon="2.47969">
        <ele>124.7</ele>
        <time>2023-05-24T14:29:50Z</time>
      </trkpt>
      <trkpt lat="50.04414" lon="2.47966">
        <ele>124.6</ele>
        <time>2023-05-24T14:35:15Z</time>
      </trkpt>
      <trkpt lat="50.04409" lon="2.47963">
        <ele>124.5</ele>
        <time>2023-05-24T14:35:15Z</time>
      </trkpt>
      <trkpt lat="50.04105" lon="2.47769">
        <ele>116</ele>
        <time>2023-05-24T14:35:16Z</time>
      </trkpt>
      <trkpt lat="50.04104" lon="2.47769">
        <ele>115.9</ele>
        <time>2023-05-24T14:35:17Z</time>
      </trkpt>
      <trkpt lat="50.04103" lon="2.47768">
        <ele>115.8</ele>
        <time>2023-05-24T14:35:19Z</time>
      </trkpt>
      <trkpt lat="50.04102" lon="2.47767">
        <ele>115.8</ele>
        <time>2023-05-24T14:35:20Z</time>
      </trkpt>
      <trkpt lat="50.04101" lon="2.47766">
        <ele>115.7</ele>
        <time>2023-05-24T14:35:21Z</time>
      </trkpt>
      <trkpt lat="50.04001" lon="2.47715">
        <ele>115.3</ele>
        <time>2023-05-24T14:42:25Z</time>
      </trkpt>
      <trkpt lat="50.04001" lon="2.47715">
        <ele>115.3</ele>
        <time>2023-05-24T14:42:25Z</time>
      </trkpt>
      <trkpt lat="50.03992" lon="2.4757">
        <ele>109.5</ele>
        <time>2023-05-24T14:42:26Z</time>
      </trkpt>
      <trkpt lat="50.03992" lon="2.47568">
        <ele>109.4</ele>
        <time>2023-05-24T14:42:27Z</time>
      </trkpt>
      <trkpt lat="50.03992" lon="2.47567">
        <ele>109.3</ele>
        <time>2023-05-24T14:42:29Z</time>
      </trkpt>
      <trkpt lat="50.03992" lon="2.47566">
        <ele>109.2</ele>
        <time>2023-05-24T14:42:30Z</time>
      </trkpt>
      <trkpt lat="50.03992" lon="2.47564">
        <ele>109.1</ele>
        <time>2023-05-24T14:42:31Z</time>
      </trkpt>
      <trkpt lat="50.03882" lon="2.47184">
        <ele>91.4</ele>
        <time>2023-05-24T14:47:52Z</time>
      </trkpt>
      <trkpt lat="50.03664" lon="2.46571">
        <ele>72.8</ele>
        <time>2023-05-24T14:53:21Z</time>
      </trkpt>
      <trkpt lat="50.03661" lon="2.46567">
        <ele>72.7</ele>
        <time>2023-05-24T14:53:22Z</time>
      </trkpt>
      <trkpt lat="50.0366" lon="2.46565">
        <ele>72.6</ele>
        <time>2023-05-24T14:53:23Z</time>
      </trkpt>
      <trkpt lat="50.03659" lon="2.46564">
        <ele>72.6</ele>
        <time>2023-05-24T14:53:24Z</time>
      </trkpt>
      <trkpt lat="50.03659" lon="2.46562">
        <ele>72.6</ele>
        <time>2023-05-24T14:53:25Z</time>
      </trkpt>
      <trkpt lat="50.03658" lon="2.46561">
        <ele>72.5</ele>
        <time>2023-05-24T14:53:26Z</time>
      </trkpt>
      <trkpt lat="50.03657" lon="2.4656">
        <ele>72.5</ele>
        <time>2023-05-24T14:58:55Z</time>
      </trkpt>
      <trkpt lat="50.03525" lon="2.46221">
        <ele>72</ele>
        <time>2023-05-24T14:58:56Z</time>
      </trkpt>
      <trkpt lat="50.03527" lon="2.46217">
        <ele>72.1</ele>
        <time>2023-05-24T14:58:57Z</time>
      </trkpt>
      <trkpt lat="50.03527" lon="2.46216">
        <ele>72.1</ele>
        <time>2023-05-24T14:58:58Z</time>
      </trkpt>
      <trkpt lat="50.03528" lon="2.46215">
        <ele>72.1</ele>
        <time>2023-05-24T14:58:59Z</time>
      </trkpt>
      <trkpt lat="50.03528" lon="2.46214">
        <ele>72.1</ele>
        <time>2023-05-24T14:59:00Z</time>
      </trkpt>
      <trkpt lat="50.03528" lon="2.46213">
        <ele>72.1</ele>
        <time>2023-05-24T14:59:01Z</time>
      </trkpt>
      <trkpt lat="50.03543" lon="2.4607">
        <ele>73.1</ele>
        <time>2023-05-24T15:05:40Z</time>
      </trkpt>
      <trkpt lat="50.03522" lon="2.45976">
        <ele>73.8</ele>
        <time>2023-05-24T15:05:45Z</time>
      </trkpt>
      <trkpt lat="50.03515" lon="2.45971">
        <ele>74</ele>
        <time>2023-05-24T15:05:46Z</time>
      </trkpt>
      <trkpt lat="50.03509" lon="2.45963">
        <ele>74.4</ele>
        <time>2023-05-24T15:14:43Z</time>
      </trkpt>
      <trkpt lat="50.03503" lon="2.45956">
        <ele>74.8</ele>
        <time>2023-05-24T15:14:43Z</time>
      </trkpt>
      <trkpt lat="50.03503" lon="2.45961">
        <ele>74.7</ele>
        <time>2023-05-24T15:14:44Z</time>
      </trkpt>
      <trkpt lat="50.03503" lon="2.45961">
        <ele>74.7</ele>
        <time>2023-05-24T15:14:45Z</time>
      </trkpt>
      <trkpt lat="50.03503" lon="2.45961">
        <ele>74.7</ele>
        <time>2023-05-24T15:14:46Z</time>
      </trkpt>
      <trkpt lat="50.03503" lon="2.45961">
        <ele>74.7</ele>
        <time>2023-05-24T15:14:47Z</time>
      </trkpt>
      <trkpt lat="50.03503" lon="2.45961">
        <ele>74.7</ele>
        <time>2023-05-24T15:14:48Z</time>
      </trkpt>
      <trkpt lat="50.03503" lon="2.45961">
        <ele>74.7</ele>
        <time>2023-05-24T15:14:49Z</time>
      </trkpt>
      <trkpt lat="50.03503" lon="2.45961">
        <ele>74.7</ele>
        <time>2023-05-24T15:23:43Z</time>
      </trkpt>
    </trkseg>
  </trk>
</gpx>